Time;durP1;ratioP1;P1;durP2;ratioP2;P2;SDS_P1;SDS_P2;PMS_P1;PMS_P2;Temp;Humidity;BMP_temperature;BMP_pressure;BME280_temperature;BME280_humidity;BME280_pressure;Samples;Min_cycle;Max_cycle;Signal;HPM_P1;HPM_P2
2023/07/05 00:02:14;;;;;;;6.03;3.83;;;19.60;69.40;;;;;;4972373;28;20261;-78
2023/07/05 00:04:40;;;;;;;5.80;3.97;;;19.60;69.50;;;;;;4976587;28;20279;-78
2023/07/05 00:07:06;;;;;;;7.20;4.00;;;19.70;69.50;;;;;;4973592;28;20561;-78
2023/07/05 00:09:31;;;;;;;7.53;4.47;;;19.80;69.40;;;;;;4971113;28;20204;-78
2023/07/05 00:11:57;;;;;;;5.90;3.90;;;19.80;69.20;;;;;;4967643;28;20268;-78
2023/07/05 00:14:24;;;;;;;10.50;4.30;;;19.80;69.20;;;;;;4972151;28;20657;-78
2023/07/05 00:16:50;;;;;;;10.20;5.20;;;19.80;69.40;;;;;;4968315;28;20647;-77
2023/07/05 00:19:15;;;;;;;7.53;4.57;;;19.90;69.20;;;;;;4971463;28;20442;-77
2023/07/05 00:21:41;;;;;;;7.60;4.70;;;19.90;69.10;;;;;;4968777;28;20191;-78
2023/07/05 00:24:06;;;;;;;9.03;4.90;;;19.90;69.10;;;;;;4966651;28;20222;-78
2023/07/05 00:26:32;;;;;;;8.73;4.60;;;19.70;69.20;;;;;;4971851;28;20202;-77
2023/07/05 00:28:58;;;;;;;6.73;4.03;;;19.70;69.50;;;;;;4970936;28;20702;-78
2023/07/05 00:31:23;;;;;;;5.87;3.27;;;19.90;69.70;;;;;;4967903;28;20202;-77
2023/07/05 00:33:49;;;;;;;4.67;3.00;;;20.00;69.40;;;;;;4970409;28;20575;-77
2023/07/05 00:36:15;;;;;;;6.03;3.30;;;20.10;69.10;;;;;;4971933;28;20195;-77
2023/07/05 00:38:40;;;;;;;5.97;3.37;;;20.20;69.10;;;;;;4973170;28;20293;-77
2023/07/05 00:41:06;;;;;;;5.40;3.40;;;20.20;68.80;;;;;;4968635;28;20673;-77
2023/07/05 00:43:31;;;;;;;6.80;3.87;;;20.20;68.90;;;;;;4971634;28;20284;-77
2023/07/05 00:46:00;;;;;;;4.90;2.90;;;20.30;68.80;;;;;;4968177;28;20187;-78
2023/07/05 00:48:38;;;;;;;4.30;3.23;;;20.30;68.80;;;;;;4967996;28;20237;-78
2023/07/05 00:51:19;;;;;;;4.37;2.70;;;20.40;68.80;;;;;;4966483;28;20960;-78
2023/07/05 00:53:45;;;;;;;13.27;3.10;;;20.30;68.80;;;;;;4966545;28;20433;-78
2023/07/05 00:56:21;;;;;;;6.93;3.50;;;20.40;68.60;;;;;;4967256;28;20921;-77
2023/07/05 00:58:47;;;;;;;4.40;3.30;;;20.30;68.80;;;;;;4965945;28;20286;-78
2023/07/05 01:01:13;;;;;;;4.00;2.70;;;20.30;68.90;;;;;;4963700;28;20579;-77
2023/07/05 01:03:40;;;;;;;5.03;2.80;;;20.40;68.50;;;;;;4972151;28;20439;-77
2023/07/05 01:06:07;;;;;;;5.40;2.47;;;20.40;68.60;;;;;;4966475;28;20322;-77
2023/07/05 01:08:33;;;;;;;5.23;3.37;;;20.40;68.50;;;;;;4969462;28;21000;-77
2023/07/05 01:11:09;;;;;;;4.10;2.63;;;20.40;68.30;;;;;;4966259;28;20467;-77
2023/07/05 01:13:46;;;;;;;3.83;2.50;;;20.50;68.20;;;;;;4971480;28;20204;-76
2023/07/05 01:16:36;;;;;;;4.30;2.83;;;20.40;68.20;;;;;;4969790;28;20435;-77
2023/07/05 01:19:29;;;;;;;4.97;2.37;;;20.50;68.20;;;;;;4975426;28;20431;-77
2023/07/05 01:22:03;;;;;;;6.20;2.83;;;20.60;67.90;;;;;;4966591;28;20443;-78
2023/07/05 01:24:44;;;;;;;2.57;2.10;;;20.60;68.30;;;;;;4970428;28;20798;-77
2023/07/05 01:27:40;;;;;;;7.40;3.30;;;20.60;68.90;;;;;;4966033;28;20438;-78
2023/07/05 01:30:09;;;;;;;3.60;2.50;;;20.50;69.50;;;;;;4969127;28;20471;-78
2023/07/05 01:32:42;;;;;;;4.40;2.50;;;20.30;69.80;;;;;;4971308;28;20425;-76
2023/07/05 01:35:20;;;;;;;5.60;3.33;;;20.30;69.90;;;;;;4967890;28;20938;-76
2023/07/05 01:37:46;;;;;;;4.27;2.43;;;20.20;70.20;;;;;;4976108;28;20474;-77
2023/07/05 01:40:15;;;;;;;4.47;2.77;;;20.20;70.20;;;;;;4976063;28;20483;-77
2023/07/05 01:42:43;;;;;;;3.63;3.00;;;20.20;69.70;;;;;;4976887;28;20223;-76
2023/07/05 01:45:09;;;;;;;8.00;3.47;;;20.20;69.70;;;;;;4969899;28;20509;-76
2023/07/05 01:47:45;;;;;;;5.27;2.80;;;20.00;70.20;;;;;;4975851;28;21002;-77
2023/07/05 01:50:36;;;;;;;7.07;3.63;;;20.00;70.40;;;;;;4970631;28;20475;-76
2023/07/05 01:53:47;;;;;;;4.23;2.67;;;20.00;69.90;;;;;;4970760;28;20474;-77
2023/07/05 01:56:20;;;;;;;7.63;2.90;;;19.80;70.20;;;;;;4889691;29;20458;-77
2023/07/05 01:58:49;;;;;;;4.93;2.73;;;19.70;70.40;;;;;;4890937;29;20458;-78
2023/07/05 02:01:16;;;;;;;5.07;3.17;;;19.60;70.70;;;;;;4889073;29;20473;-78
2023/07/05 02:03:45;;;;;;;3.70;2.70;;;19.50;70.70;;;;;;4890620;29;20489;-76
2023/07/05 02:06:11;;;;;;;4.30;2.70;;;19.50;71.00;;;;;;4892284;29;21145;-77
2023/07/05 02:08:39;;;;;;;4.27;2.60;;;19.40;71.30;;;;;;4891405;29;20521;-75
2023/07/05 02:11:05;;;;;;;5.30;2.50;;;19.20;71.40;;;;;;4883979;29;21037;-77
2023/07/05 02:13:31;;;;;;;5.77;3.13;;;19.20;71.60;;;;;;4888519;29;20825;-75
2023/07/05 02:15:57;;;;;;;4.73;2.70;;;19.20;71.40;;;;;;4888277;29;20939;-77
2023/07/05 02:18:23;;;;;;;9.97;3.20;;;19.20;71.40;;;;;;4890241;29;20460;-77
2023/07/05 02:20:48;;;;;;;5.60;2.77;;;19.20;71.10;;;;;;4889204;29;20251;-77
2023/07/05 02:23:14;;;;;;;4.70;2.80;;;19.20;71.40;;;;;;4891261;29;20200;-76
2023/07/05 02:25:40;;;;;;;5.43;2.53;;;19.20;71.10;;;;;;4888436;29;20216;-77
2023/07/05 02:28:09;;;;;;;4.30;3.00;;;19.20;71.30;;;;;;4892864;29;20237;-77
2023/07/05 02:30:39;;;;;;;5.47;3.07;;;19.20;71.30;;;;;;4889656;28;20482;-76
2023/07/05 02:33:05;;;;;;;6.73;2.70;;;19.20;71.40;;;;;;4963569;28;20457;-77
2023/07/05 02:35:35;;;;;;;7.33;3.10;;;19.30;71.10;;;;;;4970968;28;20438;-76
2023/07/05 02:38:00;;;;;;;5.97;2.70;;;19.40;71.00;;;;;;4967825;28;21024;-77
2023/07/05 02:40:26;;;;;;;3.13;2.40;;;19.50;70.50;;;;;;4966222;28;20552;-76
2023/07/05 02:42:52;;;;;;;4.13;2.47;;;19.50;71.30;;;;;;4972396;28;20199;-77
2023/07/05 02:45:17;;;;;;;5.73;2.80;;;19.30;72.00;;;;;;4980566;28;20207;-75
2023/07/05 02:47:43;;;;;;;3.57;2.67;;;19.10;73.50;;;;;;4981144;28;20307;-75
2023/07/05 02:50:09;;;;;;;3.40;2.40;;;19.00;74.00;;;;;;4971127;28;20207;-76
2023/07/05 02:52:35;;;;;;;4.67;2.83;;;19.00;74.50;;;;;;4973172;28;20281;-74
2023/07/05 02:55:00;;;;;;;3.90;2.67;;;19.00;74.50;;;;;;4970834;28;20474;-77
2023/07/05 02:57:26;;;;;;;6.23;3.23;;;19.00;74.60;;;;;;4975253;28;20636;-76
2023/07/05 02:59:51;;;;;;;5.13;2.70;;;19.00;74.90;;;;;;4971492;28;20246;-76
2023/07/05 03:02:17;;;;;;;5.07;2.97;;;19.00;75.70;;;;;;4957053;28;20264;-75
2023/07/05 03:04:43;;;;;;;3.00;2.10;;;19.00;76.40;;;;;;4970627;28;20192;-76
2023/07/05 03:07:08;;;;;;;3.97;2.50;;;18.90;76.50;;;;;;4975389;28;20187;-76
2023/07/05 03:09:34;;;;;;;5.47;2.90;;;18.80;76.40;;;;;;4969950;28;20211;-76
2023/07/05 03:12:00;;;;;;;2.97;1.87;;;18.80;75.80;;;;;;4975135;28;20250;-76
2023/07/05 03:14:25;;;;;;;3.90;2.33;;;19.00;75.40;;;;;;4968529;28;20191;-77
2023/07/05 03:16:51;;;;;;;8.53;3.07;;;19.10;74.80;;;;;;4974941;28;20203;-77
2023/07/05 03:19:16;;;;;;;3.80;2.17;;;19.20;74.80;;;;;;4970801;28;20559;-77
2023/07/05 03:21:43;;;;;;;5.73;2.27;;;19.20;74.50;;;;;;4966062;28;21059;-78
2023/07/05 03:24:09;;;;;;;3.33;2.23;;;19.20;74.60;;;;;;4968069;28;20193;-76
2023/07/05 03:26:34;;;;;;;3.90;2.20;;;19.30;74.60;;;;;;4971819;28;20437;-76
2023/07/05 03:29:02;;;;;;;5.83;2.70;;;19.30;74.30;;;;;;4971753;28;20226;-77
2023/07/05 03:31:28;;;;;;;3.10;2.57;;;19.40;74.60;;;;;;4968151;28;20217;-77
2023/07/05 03:33:53;;;;;;;3.50;2.23;;;19.40;74.60;;;;;;4969676;28;20432;-77
2023/07/05 03:36:20;;;;;;;4.77;2.20;;;19.40;73.90;;;;;;4978167;28;20200;-77
2023/07/05 03:38:48;;;;;;;3.63;2.20;;;19.50;73.30;;;;;;4971822;28;20187;-76
2023/07/05 03:41:19;;;;;;;5.73;2.53;;;19.50;72.70;;;;;;4973251;28;20471;-77
2023/07/05 03:43:47;;;;;;;6.43;2.67;;;19.50;72.60;;;;;;4970459;28;20447;-78
2023/07/05 03:46:15;;;;;;;3.60;2.03;;;19.40;72.60;;;;;;4974277;28;20449;-77
2023/07/05 03:48:43;;;;;;;4.00;2.70;;;19.50;72.70;;;;;;4975306;28;20964;-77
2023/07/05 03:51:10;;;;;;;6.13;2.20;;;19.50;72.90;;;;;;4970402;28;21067;-78
2023/07/05 03:53:36;;;;;;;5.60;2.00;;;19.50;72.90;;;;;;4974518;28;20430;-77
2023/07/05 03:56:04;;;;;;;4.80;2.30;;;19.50;72.90;;;;;;4971474;28;20775;-77
2023/07/05 03:58:30;;;;;;;4.50;2.40;;;19.60;72.90;;;;;;4966975;28;20765;-76
2023/07/05 04:01:22;;;;;;;5.00;2.50;;;19.50;73.20;;;;;;4971405;28;20473;-77
2023/07/05 04:03:56;;;;;;;4.17;2.57;;;19.50;73.60;;;;;;4962745;28;20202;-77
2023/07/05 04:06:23;;;;;;;4.37;2.43;;;19.40;74.00;;;;;;4968073;28;20445;-76
2023/07/05 04:08:49;;;;;;;3.60;2.10;;;19.30;74.60;;;;;;4975378;28;20482;-77
2023/07/05 04:11:15;;;;;;;3.40;2.30;;;19.20;75.20;;;;;;4968731;28;20475;-77
2023/07/05 04:13:41;;;;;;;4.17;2.57;;;19.10;75.70;;;;;;4968931;28;20201;-77
2023/07/05 04:16:12;;;;;;;4.07;2.40;;;19.00;76.40;;;;;;4968236;28;20197;-78
2023/07/05 04:18:39;;;;;;;7.90;2.23;;;18.90;77.00;;;;;;4974119;28;20435;-78
2023/07/05 04:21:05;;;;;;;4.00;2.50;;;18.90;77.00;;;;;;4969902;28;20466;-78
2023/07/05 04:23:31;;;;;;;3.20;2.07;;;18.90;77.30;;;;;;4970202;28;20516;-77
2023/07/05 04:26:05;;;;;;;4.40;2.47;;;18.80;77.60;;;;;;4974514;28;20866;-77
2023/07/05 04:28:31;;;;;;;3.53;2.47;;;18.80;77.70;;;;;;4974294;28;20222;-78
2023/07/05 04:30:57;;;;;;;5.97;2.93;;;18.70;78.00;;;;;;4967144;28;20852;-77
2023/07/05 04:33:23;;;;;;;3.57;2.63;;;18.70;78.30;;;;;;4968768;28;20824;-77
2023/07/05 04:35:50;;;;;;;5.93;2.53;;;18.70;78.60;;;;;;4967230;28;20194;-77
2023/07/05 04:38:16;;;;;;;3.67;2.50;;;18.60;78.60;;;;;;4969854;28;20439;-77
2023/07/05 04:40:42;;;;;;;5.00;2.40;;;18.60;78.90;;;;;;4968589;28;20469;-77
2023/07/05 04:43:08;;;;;;;3.87;2.50;;;18.60;78.70;;;;;;4969345;28;20461;-77
2023/07/05 04:45:34;;;;;;;4.60;2.50;;;18.60;78.90;;;;;;4968076;28;20191;-77
2023/07/05 04:48:00;;;;;;;4.33;2.70;;;18.60;79.00;;;;;;4967637;28;20515;-77
2023/07/05 04:50:25;;;;;;;3.13;2.00;;;18.60;79.00;;;;;;4969488;28;20225;-77
2023/07/05 04:52:51;;;;;;;2.80;2.10;;;18.60;79.00;;;;;;4974109;28;20261;-77
2023/07/05 04:55:16;;;;;;;4.67;2.87;;;18.70;78.90;;;;;;4972569;28;20188;-77
2023/07/05 04:57:42;;;;;;;4.53;2.50;;;18.70;79.00;;;;;;4972344;28;20238;-77
2023/07/05 05:00:09;;;;;;;5.97;2.63;;;18.80;78.70;;;;;;4970905;28;20207;-77
2023/07/05 05:02:36;;;;;;;5.63;2.37;;;18.90;78.40;;;;;;4975984;28;20192;-77
2023/07/05 05:05:02;;;;;;;3.10;2.20;;;18.90;78.30;;;;;;4973030;28;20992;-78
2023/07/05 05:07:27;;;;;;;3.53;2.20;;;19.00;77.70;;;;;;4974165;28;20476;-77
2023/07/05 05:09:53;;;;;;;3.43;2.07;;;19.10;77.40;;;;;;4964472;28;20628;-76
2023/07/05 05:12:19;;;;;;;4.60;2.30;;;19.20;77.10;;;;;;4971024;28;20200;-77
2023/07/05 05:14:44;;;;;;;4.77;2.33;;;19.30;76.80;;;;;;4979691;28;20199;-77
2023/07/05 05:17:10;;;;;;;7.03;2.63;;;19.40;76.70;;;;;;4963296;28;20271;-79
2023/07/05 05:19:35;;;;;;;3.97;2.27;;;19.40;76.50;;;;;;4977660;28;20745;-76
2023/07/05 05:22:01;;;;;;;3.53;2.10;;;19.40;76.50;;;;;;4977867;28;20198;-77
2023/07/05 05:24:27;;;;;;;2.67;1.97;;;19.40;76.10;;;;;;4955579;28;20198;-77
2023/07/05 05:26:54;;;;;;;4.33;2.30;;;19.50;75.90;;;;;;4975165;28;20217;-77
2023/07/05 05:29:20;;;;;;;3.60;2.07;;;19.60;75.50;;;;;;4973933;28;20226;-76
2023/07/05 05:31:48;;;;;;;3.27;2.03;;;19.70;75.50;;;;;;4973364;28;20506;-78
2023/07/05 05:34:13;;;;;;;4.80;2.00;;;19.70;74.90;;;;;;4967572;28;20196;-76
2023/07/05 05:36:39;;;;;;;8.03;2.33;;;19.70;75.10;;;;;;4974704;28;20537;-77
2023/07/05 05:39:06;;;;;;;5.07;2.10;;;19.80;74.60;;;;;;4978129;28;20195;-77
2023/07/05 05:41:31;;;;;;;3.97;1.83;;;19.80;74.60;;;;;;4970674;28;20213;-77
2023/07/05 05:43:57;;;;;;;5.17;2.00;;;19.80;74.90;;;;;;4973471;28;20811;-78
2023/07/05 05:46:23;;;;;;;4.53;2.10;;;19.90;74.60;;;;;;4972465;28;20564;-76
2023/07/05 05:48:48;;;;;;;4.07;2.47;;;19.90;74.50;;;;;;4967913;28;20245;-77
2023/07/05 05:51:14;;;;;;;4.47;2.53;;;20.00;74.50;;;;;;4969254;28;20203;-76
2023/07/05 05:53:40;;;;;;;4.40;2.30;;;20.00;74.30;;;;;;4975220;28;20207;-76
2023/07/05 05:56:05;;;;;;;2.70;1.97;;;20.10;73.90;;;;;;4975506;28;20200;-78
2023/07/05 05:58:31;;;;;;;6.03;2.33;;;20.20;73.30;;;;;;4971924;28;20203;-76
2023/07/05 06:01:03;;;;;;;4.53;2.27;;;20.30;72.90;;;;;;4968980;28;20218;-77
2023/07/05 06:03:29;;;;;;;4.00;2.23;;;20.40;72.40;;;;;;4967506;28;20194;-78
2023/07/05 06:05:55;;;;;;;4.20;2.50;;;20.50;72.10;;;;;;4968982;28;20435;-77
2023/07/05 06:08:21;;;;;;;4.57;2.33;;;20.70;71.80;;;;;;4972614;28;20548;-77
2023/07/05 06:10:54;;;;;;;2.70;1.97;;;20.80;71.60;;;;;;4969710;28;20701;-77
2023/07/05 06:13:20;;;;;;;3.27;2.60;;;20.80;71.30;;;;;;4968475;28;20280;-76
2023/07/05 06:15:46;;;;;;;3.33;2.27;;;20.80;70.80;;;;;;4971602;28;20603;-77
2023/07/05 06:18:11;;;;;;;5.60;2.60;;;20.80;70.20;;;;;;4968361;28;20192;-77
2023/07/05 06:20:37;;;;;;;4.90;2.23;;;20.90;70.40;;;;;;4970725;28;20592;-79
2023/07/05 06:23:03;;;;;;;6.33;3.13;;;21.00;70.20;;;;;;4978248;28;20602;-77
2023/07/05 06:25:30;;;;;;;5.77;2.70;;;21.00;70.20;;;;;;4978720;28;20197;-76
2023/07/05 06:27:56;;;;;;;3.97;2.30;;;20.90;70.80;;;;;;4970639;28;20492;-77
2023/07/05 06:30:22;;;;;;;4.60;2.70;;;20.90;70.50;;;;;;4964125;28;20479;-77
2023/07/05 06:32:47;;;;;;;9.27;3.40;;;21.00;70.20;;;;;;4976187;28;20208;-77
2023/07/05 06:35:13;;;;;;;4.10;2.73;;;21.20;69.80;;;;;;4978640;28;20208;-78
2023/07/05 06:37:38;;;;;;;5.40;2.60;;;21.30;69.10;;;;;;4983926;28;20267;-76
2023/07/05 06:40:05;;;;;;;4.90;2.63;;;21.20;69.70;;;;;;4988390;28;20239;-76
2023/07/05 06:42:30;;;;;;;3.90;2.60;;;21.10;70.70;;;;;;4977912;28;20300;-77
2023/07/05 06:44:56;;;;;;;7.50;2.97;;;21.00;72.10;;;;;;4974336;28;20563;-77
2023/07/05 06:47:22;;;;;;;5.10;2.90;;;20.80;74.00;;;;;;4975007;28;20203;-77
2023/07/05 06:49:48;;;;;;;5.67;3.10;;;20.50;75.70;;;;;;4970247;28;20283;-77
2023/07/05 06:52:13;;;;;;;5.53;2.73;;;20.20;78.60;;;;;;4974048;28;20929;-77
2023/07/05 06:54:39;;;;;;;5.10;2.40;;;19.90;80.20;;;;;;4969088;28;20246;-77
2023/07/05 06:57:05;;;;;;;5.33;3.10;;;19.60;81.90;;;;;;4975716;28;20279;-77
2023/07/05 06:59:32;;;;;;;6.80;3.30;;;19.30;82.70;;;;;;4968119;28;20257;-78
2023/07/05 07:01:58;;;;;;;4.53;3.10;;;19.00;84.70;;;;;;4972467;28;20476;-77
2023/07/05 07:04:24;;;;;;;11.03;3.77;;;18.80;86.00;;;;;;4970616;28;20444;-75
2023/07/05 07:06:49;;;;;;;4.53;3.00;;;18.60;87.40;;;;;;4978363;28;20224;-78
2023/07/05 07:09:15;;;;;;;6.90;3.70;;;18.40;88.30;;;;;;4976680;28;20900;-78
2023/07/05 07:11:41;;;;;;;6.00;2.90;;;18.30;89.60;;;;;;4972888;28;20572;-78
2023/07/05 07:14:07;;;;;;;6.00;3.20;;;18.30;90.30;;;;;;4969073;28;20196;-77
2023/07/05 07:16:33;;;;;;;5.70;3.53;;;18.10;90.40;;;;;;4977653;28;20500;-77
2023/07/05 07:18:59;;;;;;;6.93;2.60;;;18.00;90.70;;;;;;4980335;28;20875;-76
2023/07/05 07:21:25;;;;;;;5.00;3.10;;;18.00;91.00;;;;;;4972290;28;20211;-77
2023/07/05 07:23:51;;;;;;;7.50;3.40;;;18.10;91.10;;;;;;4975602;28;20954;-77
2023/07/05 07:26:22;;;;;;;4.83;3.10;;;18.20;91.10;;;;;;4976450;28;20200;-76
2023/07/05 07:28:52;;;;;;;4.57;2.97;;;18.30;90.70;;;;;;4974368;28;20492;-76
2023/07/05 07:31:29;;;;;;;4.90;2.80;;;18.40;90.10;;;;;;4970590;28;20479;-77
2023/07/05 07:33:55;;;;;;;5.53;3.23;;;18.50;90.00;;;;;;4976087;28;20434;-75
2023/07/05 07:36:26;;;;;;;4.97;3.10;;;18.60;90.10;;;;;;4978037;28;20455;-76
2023/07/05 07:38:53;;;;;;;6.30;2.90;;;18.70;88.90;;;;;;4978399;28;20506;-77
2023/07/05 07:41:22;;;;;;;5.30;2.90;;;18.90;88.60;;;;;;4973057;28;20463;-77
2023/07/05 07:43:53;;;;;;;5.03;2.97;;;19.20;87.80;;;;;;4969928;28;20428;-78
2023/07/05 07:46:22;;;;;;;5.50;3.33;;;19.30;86.50;;;;;;4968647;28;20441;-77
2023/07/05 07:48:50;;;;;;;3.93;2.70;;;19.40;85.90;;;;;;4974501;28;20834;-77
2023/07/05 07:51:17;;;;;;;4.70;2.83;;;19.60;85.20;;;;;;4964884;28;20498;-76
2023/07/05 07:53:43;;;;;;;8.53;3.27;;;19.60;84.30;;;;;;4974370;28;20454;-78
2023/07/05 07:56:13;;;;;;;5.80;1.93;;;19.40;83.00;;;;;;4979830;28;20438;-77
2023/07/05 07:58:40;;;;;;;4.10;2.20;;;19.40;83.10;;;;;;4978137;28;20298;-76
2023/07/05 08:01:14;;;;;;;5.40;2.40;;;19.10;82.20;;;;;;4968789;28;20465;-78
2023/07/05 08:03:40;;;;;;;4.97;2.30;;;19.10;83.60;;;;;;4974720;28;20465;-77
2023/07/05 08:06:06;;;;;;;3.23;2.00;;;19.00;83.30;;;;;;4978371;28;20433;-78
2023/07/05 08:08:33;;;;;;;3.20;2.00;;;19.00;83.10;;;;;;4976707;28;20579;-78
2023/07/05 08:10:59;;;;;;;3.40;1.90;;;18.50;83.40;;;;;;4970700;28;20476;-77
2023/07/05 08:13:24;;;;;;;4.53;2.23;;;18.50;84.00;;;;;;4972390;28;20587;-76
2023/07/05 08:15:50;;;;;;;3.40;2.20;;;18.10;84.10;;;;;;4977496;28;20190;-77
2023/07/05 08:18:15;;;;;;;3.93;2.13;;;18.20;85.30;;;;;;4980246;28;20266;-76
2023/07/05 08:20:41;;;;;;;4.30;1.93;;;18.30;85.20;;;;;;4977172;28;20236;-76
2023/07/05 08:23:07;;;;;;;2.67;1.80;;;18.30;85.00;;;;;;4979183;28;20228;-77
2023/07/05 08:25:38;;;;;;;4.50;2.30;;;18.20;85.30;;;;;;4977544;28;20434;-77
2023/07/05 08:28:05;;;;;;;4.70;2.40;;;18.10;85.70;;;;;;4973512;28;20226;-76
2023/07/05 08:30:33;;;;;;;3.90;2.10;;;18.10;85.30;;;;;;4975206;28;20492;-77
2023/07/05 08:32:59;;;;;;;3.60;1.90;;;18.10;84.10;;;;;;4976433;28;20474;-75
2023/07/05 08:35:24;;;;;;;2.70;1.90;;;18.10;84.90;;;;;;4977863;28;20438;-77
2023/07/05 08:37:50;;;;;;;3.57;2.00;;;18.20;84.70;;;;;;4977253;28;20195;-77
2023/07/05 08:40:17;;;;;;;2.50;1.93;;;18.30;85.00;;;;;;4974723;28;20238;-78
2023/07/05 08:42:46;;;;;;;5.57;2.10;;;18.20;83.10;;;;;;4972090;28;20312;-77
2023/07/05 08:45:37;;;;;;;4.40;2.30;;;18.40;84.30;;;;;;4975839;28;20428;-76
2023/07/05 08:48:05;;;;;;;3.47;2.20;;;18.40;82.70;;;;;;4975118;28;20491;-77
2023/07/05 08:50:35;;;;;;;3.83;2.13;;;18.70;83.00;;;;;;4974109;28;20466;-76
2023/07/05 08:53:23;;;;;;;3.97;2.30;;;18.90;80.20;;;;;;4977967;28;20439;-75
2023/07/05 08:56:03;;;;;;;4.17;2.37;;;18.90;79.90;;;;;;4977334;28;20944;-76
2023/07/05 08:58:36;;;;;;;3.77;2.00;;;19.00;79.70;;;;;;4977949;28;20460;-76
2023/07/05 09:01:05;;;;;;;7.20;2.10;;;19.10;79.50;;;;;;5064316;23;20506;-83
2023/07/05 09:03:31;;;;;;;3.27;1.90;;;19.00;78.40;;;;;;4988664;28;20768;-82
2023/07/05 09:06:09;;;;;;;3.80;2.20;;;19.10;79.30;;;;;;4987099;28;20875;-83
2023/07/05 09:08:52;;;;;;;4.20;2.27;;;19.40;78.90;;;;;;4981496;28;20499;-83
2023/07/05 09:11:36;;;;;;;3.43;2.27;;;19.50;76.50;;;;;;4978619;28;20468;-83
2023/07/05 09:14:22;;;;;;;4.60;2.63;;;19.70;75.90;;;;;;4981867;28;20453;-84
2023/07/05 09:17:07;;;;;;;3.33;2.50;;;19.20;76.20;;;;;;4984915;28;20791;-82
2023/07/05 09:20:05;;;;;;;4.93;2.60;;;19.20;77.00;;;;;;4980783;28;20531;-81
2023/07/05 09:22:36;;;;;;;4.73;2.73;;;19.00;76.80;;;;;;4974443;28;20524;-81
2023/07/05 09:25:05;;;;;;;5.50;2.60;;;19.00;78.40;;;;;;4975515;28;20426;-81
2023/07/05 09:27:37;;;;;;;5.03;3.03;;;19.20;77.80;;;;;;4971072;28;20442;-81
2023/07/05 09:30:10;;;;;;;3.83;2.60;;;19.30;76.80;;;;;;4974700;28;20510;-81
2023/07/05 09:32:39;;;;;;;4.93;2.30;;;19.50;75.10;;;;;;4976822;28;20435;-80
2023/07/05 09:35:28;;;;;;;7.40;3.20;;;19.60;72.70;;;;;;4979700;28;20492;-81
2023/07/05 09:38:31;;;;;;;7.40;3.20;;;19.40;73.90;;;;;;4974494;28;20493;-80
2023/07/05 09:41:10;;;;;;;4.10;3.20;;;19.60;72.60;;;;;;4991454;28;20481;-81
2023/07/05 09:43:36;;;;;;;3.30;2.57;;;19.80;73.30;;;;;;4987627;28;20453;-83
2023/07/05 09:46:13;;;;;;;4.17;2.63;;;19.90;71.30;;;;;;4985132;28;20700;-82
2023/07/05 09:48:43;;;;;;;5.40;3.00;;;20.00;71.30;;;;;;4977449;28;20472;-81
2023/07/05 09:51:11;;;;;;;5.73;3.50;;;20.30;70.50;;;;;;4974574;28;20479;-82
2023/07/05 09:53:46;;;;;;;4.27;2.60;;;20.30;68.00;;;;;;4980048;28;20466;-82
2023/07/05 09:56:18;;;;;;;3.90;2.60;;;20.40;68.50;;;;;;4976990;28;20446;-83
2023/07/05 09:58:44;;;;;;;5.27;3.00;;;20.40;69.40;;;;;;4982839;28;20430;-81
2023/07/05 10:01:18;;;;;;;4.37;2.80;;;20.70;67.50;;;;;;4986352;28;20479;-81
2023/07/05 10:03:52;;;;;;;5.13;2.40;;;20.60;66.70;;;;;;4978700;28;20435;-82
2023/07/05 10:06:22;;;;;;;5.83;2.67;;;20.80;67.50;;;;;;4968175;28;20793;-82
2023/07/05 10:08:51;;;;;;;8.63;2.73;;;21.00;64.10;;;;;;4978621;28;20491;-81
2023/07/05 10:11:26;;;;;;;4.10;2.60;;;21.20;64.50;;;;;;4977042;28;20471;-81
2023/07/05 10:14:04;;;;;;;5.97;3.13;;;21.40;63.20;;;;;;4972936;28;20501;-80
2023/07/05 10:16:53;;;;;;;4.50;2.80;;;21.70;58.80;;;;;;4988191;28;20460;-79
2023/07/05 10:19:20;;;;;;;5.33;2.97;;;21.90;57.70;;;;;;4982859;28;20499;-79
2023/07/05 10:21:52;;;;;;;5.27;2.57;;;22.20;60.00;;;;;;4982664;28;20455;-80
2023/07/05 10:24:19;;;;;;;6.13;3.10;;;22.40;56.90;;;;;;4972030;28;20434;-82
2023/07/05 10:26:49;;;;;;;4.57;2.93;;;22.50;55.70;;;;;;4982470;28;20442;-80
2023/07/05 10:29:20;;;;;;;6.13;3.80;;;22.20;60.70;;;;;;4986660;28;20565;-81
2023/07/05 10:31:58;;;;;;;7.10;3.33;;;22.40;59.70;;;;;;4977391;28;20448;-80
2023/07/05 10:34:24;;;;;;;6.20;3.23;;;22.70;58.80;;;;;;4971788;28;20436;-81
2023/07/05 10:36:51;;;;;;;4.97;3.40;;;22.60;56.80;;;;;;4979322;28;20447;-82
2023/07/05 10:39:23;;;;;;;7.70;3.57;;;22.70;56.10;;;;;;4984266;28;21009;-81
2023/07/05 10:41:56;;;;;;;6.17;2.90;;;22.80;53.30;;;;;;4989419;28;20531;-79
2023/07/05 10:44:29;;;;;;;5.27;2.73;;;22.90;52.90;;;;;;4984730;28;20403;-79
2023/07/05 10:46:56;;;;;;;4.83;3.23;;;23.10;50.50;;;;;;4983303;28;20436;-81
2023/07/05 10:49:23;;;;;;;5.50;2.93;;;22.90;50.30;;;;;;4986033;28;20539;-79
2023/07/05 10:52:12;;;;;;;6.83;3.20;;;23.10;47.10;;;;;;4975758;28;20421;-81
2023/07/05 10:55:13;;;;;;;5.50;3.07;;;23.50;46.30;;;;;;4980884;28;20448;-81
2023/07/05 10:57:43;;;;;;;3.90;2.80;;;23.50;47.70;;;;;;4978399;28;20426;-81
2023/07/05 11:00:37;;;;;;;5.27;3.33;;;23.50;45.80;;;;;;4970568;28;20465;-80
2023/07/05 11:03:15;;;;;;;6.13;3.43;;;23.40;46.70;;;;;;4983405;28;20472;-81
2023/07/05 11:05:49;;;;;;;9.67;2.90;;;23.30;47.80;;;;;;4973996;28;20438;-81
2023/07/05 11:08:39;;;;;;;8.10;3.60;;;23.40;48.30;;;;;;4981916;28;20725;-80
2023/07/05 11:11:11;;;;;;;8.30;3.23;;;23.60;47.90;;;;;;4983383;28;20465;-81
2023/07/05 11:13:37;;;;;;;6.50;3.30;;;23.30;47.80;;;;;;4980818;28;20817;-81
2023/07/05 11:16:03;;;;;;;7.13;3.80;;;23.90;47.90;;;;;;4993433;28;20468;-80
2023/07/05 11:18:29;;;;;;;5.20;3.30;;;23.10;49.80;;;;;;4988333;28;20213;-81
2023/07/05 11:20:57;;;;;;;5.80;3.20;;;22.70;51.70;;;;;;4992099;28;20456;-82
2023/07/05 11:23:44;;;;;;;12.73;4.43;;;22.90;52.20;;;;;;4983927;28;20191;-82
2023/07/05 11:26:11;;;;;;;8.30;3.80;;;23.50;51.60;;;;;;4984864;28;20437;-80
2023/07/05 11:28:39;;;;;;;5.40;3.20;;;23.00;51.00;;;;;;4992935;28;20470;-80
2023/07/05 11:31:06;;;;;;;5.93;3.27;;;22.90;52.10;;;;;;4989794;28;20461;-81
2023/07/05 11:33:32;;;;;;;6.43;3.03;;;23.10;51.30;;;;;;4987276;28;20436;-83
2023/07/05 11:36:08;;;;;;;6.53;3.40;;;23.20;50.90;;;;;;4984967;28;20452;-82
2023/07/05 11:38:37;;;;;;;5.03;3.33;;;23.30;49.40;;;;;;4987596;28;20247;-82
2023/07/05 11:41:08;;;;;;;7.53;3.73;;;23.50;49.50;;;;;;4972984;28;20675;-83
2023/07/05 11:43:40;;;;;;;4.73;3.30;;;23.40;48.60;;;;;;4971433;28;20956;-82
2023/07/05 11:46:38;;;;;;;4.53;2.70;;;23.60;49.00;;;;;;4976187;28;20444;-81
2023/07/05 11:49:25;;;;;;;4.50;3.00;;;22.90;49.70;;;;;;4970869;28;20483;-80
2023/07/05 11:52:16;;;;;;;5.40;3.67;;;23.50;48.90;;;;;;4982646;28;20434;-80
2023/07/05 11:54:46;;;;;;;6.83;3.27;;;24.30;47.50;;;;;;4970911;28;20429;-81
2023/07/05 11:57:13;;;;;;;5.80;3.30;;;24.10;47.50;;;;;;4971407;28;21314;-82
2023/07/05 11:59:49;;;;;;;4.53;2.90;;;24.40;45.40;;;;;;4979949;28;20835;-80
2023/07/05 12:02:44;;;;;;;11.33;4.30;;;24.40;44.70;;;;;;4975796;28;20438;-82
2023/07/05 12:05:13;;;;;;;6.73;3.57;;;24.30;45.40;;;;;;4966770;28;20448;-80
2023/07/05 12:07:40;;;;;;;5.73;3.20;;;24.30;46.70;;;;;;4968724;28;20495;-81
2023/07/05 12:10:08;;;;;;;5.00;3.23;;;23.70;47.00;;;;;;4975094;28;20472;-82
2023/07/05 12:12:39;;;;;;;7.30;3.77;;;23.30;48.10;;;;;;4978752;28;20465;-82
2023/07/05 12:15:05;;;;;;;6.40;3.40;;;24.00;47.40;;;;;;4974063;28;20750;-80
2023/07/05 12:17:33;;;;;;;6.03;3.20;;;22.80;46.50;;;;;;4973033;28;20498;-82
2023/07/05 12:19:59;;;;;;;4.63;2.60;;;22.40;45.10;;;;;;4976465;28;20484;-81
2023/07/05 12:22:26;;;;;;;4.93;2.83;;;22.20;46.60;;;;;;4980661;28;20429;-82
2023/07/05 12:24:56;;;;;;;5.20;3.00;;;22.00;47.10;;;;;;4980697;28;20460;-82
2023/07/05 12:27:30;;;;;;;5.60;3.10;;;22.50;48.60;;;;;;5000354;28;20441;-81
2023/07/05 12:29:58;;;;;;;3.67;2.47;;;22.70;46.30;;;;;;4979597;28;20474;-82
2023/07/05 12:32:26;;;;;;;7.00;3.10;;;22.50;45.90;;;;;;4987438;28;20426;-81
2023/07/05 12:35:10;;;;;;;4.33;2.53;;;22.20;46.60;;;;;;4978614;28;20457;-80
2023/07/05 12:37:36;;;;;;;6.50;3.03;;;22.60;47.50;;;;;;4989164;28;20435;-81
2023/07/05 12:40:12;;;;;;;5.80;2.93;;;22.50;46.10;;;;;;4991082;28;20478;-80
2023/07/05 12:42:49;;;;;;;5.37;2.90;;;22.90;45.90;;;;;;4978036;28;20513;-81
2023/07/05 12:45:30;;;;;;;7.53;3.07;;;23.20;46.30;;;;;;4979971;28;20442;-82
2023/07/05 12:47:57;;;;;;;4.87;3.03;;;23.40;44.90;;;;;;4980109;28;20502;-80
2023/07/05 12:50:25;;;;;;;6.57;3.43;;;23.30;45.80;;;;;;4970450;28;20473;-81
2023/07/05 12:53:22;;;;;;;5.07;3.03;;;24.10;43.90;;;;;;4976031;28;20436;-80
2023/07/05 12:56:03;;;;;;;9.33;2.73;;;23.70;44.60;;;;;;4956732;28;21079;-82
2023/07/05 12:58:29;;;;;;;4.20;2.77;;;24.30;43.50;;;;;;4952822;28;20463;-81
2023/07/05 13:00:56;;;;;;;5.53;3.00;;;24.30;43.20;;;;;;4942451;29;20543;-83